createdAt,value
2023-03-20T06:00:37.481Z,51.25
2023-03-20T06:03:33.531Z,55.28
2023-03-20T06:06:08.247Z,53.60
2023-03-20T06:08:37.060Z,51.70
2023-03-20T06:11:04.411Z,52.03
2023-03-20T06:13:33.678Z,53.65
2023-03-20T06:16:01.941Z,57.63
2023-03-20T06:18:29.690Z,54.10
2023-03-20T06:20:57.658Z,49.15
2023-03-20T06:23:28.166Z,54.20
2023-03-20T06:25:55.912Z,60.58
2023-03-20T06:28:24.185Z,59.57
2023-03-20T06:31:00.810Z,59.28
2023-03-20T06:33:28.906Z,56.08
2023-03-20T06:36:01.212Z,51.72
2023-03-20T06:38:30.710Z,53.53
2023-03-20T06:40:59.197Z,52.67
2023-03-20T06:43:26.724Z,55.90
2023-03-20T06:45:53.777Z,49.65
2023-03-20T06:48:27.471Z,50.20
2023-03-20T06:50:54.811Z,52.13
2023-03-20T06:53:26.981Z,54.90
2023-03-20T06:56:04.557Z,49.70
2023-03-20T06:58:31.777Z,52.75
2023-03-20T07:00:58.576Z,52.22
2023-03-20T07:03:26.123Z,54.13
2023-03-20T07:05:53.736Z,49.67
2023-03-20T07:08:22.597Z,57.97
2023-03-20T07:10:50.116Z,57.47
2023-03-20T07:13:17.083Z,61.30
2023-03-20T07:16:01.157Z,56.92
2023-03-20T07:18:34.220Z,47.40
2023-03-20T07:21:03.450Z,53.17
2023-03-20T07:23:31.834Z,54.40
2023-03-20T07:26:02.614Z,48.92
2023-03-20T07:28:30.068Z,48.10
2023-03-20T07:31:20.269Z,45.53
2023-03-20T07:33:49.398Z,48.28
2023-03-20T07:36:16.208Z,39.92
2023-03-20T07:38:46.840Z,43.28
2023-03-20T07:41:15.047Z,42.30
2023-03-20T07:43:47.224Z,38.60
2023-03-20T07:46:21.741Z,37.70
2023-03-20T07:48:48.694Z,34.58
2023-03-20T07:51:15.890Z,34.78
2023-03-20T07:53:42.552Z,35.70
2023-03-20T07:56:10.622Z,32.17
2023-03-20T07:58:38.143Z,30.02
2023-03-20T08:01:04.944Z,30.48
2023-03-20T08:03:32.959Z,34.25
2023-03-20T08:05:59.951Z,33.30
2023-03-20T08:08:27.307Z,32.92
2023-03-20T08:10:54.312Z,33.00
2023-03-20T08:13:21.418Z,28.65
2023-03-20T08:15:48.544Z,29.48
2023-03-20T08:18:15.307Z,33.10
2023-03-20T08:20:43.059Z,32.17
2023-03-20T08:23:09.633Z,30.48
2023-03-20T08:25:37.083Z,29.90
2023-03-20T08:28:05.131Z,32.75
2023-03-20T08:30:31.879Z,32.75
2023-03-20T08:32:59.409Z,31.80
2023-03-20T08:35:46.006Z,34.33
2023-03-20T08:38:13.928Z,38.08
2023-03-20T08:40:42.388Z,30.08
2023-03-20T08:43:09.303Z,34.33
2023-03-20T08:45:48.388Z,28.38
2023-03-20T08:50:44.695Z,27.42
2023-03-20T08:53:12.381Z,34.90
2023-03-20T08:55:39.075Z,26.52
2023-03-20T08:58:06.136Z,29.13
2023-03-20T09:00:33.673Z,26.88
2023-03-20T09:03:00.832Z,27.50
2023-03-20T09:05:28.139Z,25.20
2023-03-20T09:07:55.314Z,24.63
2023-03-20T09:10:22.025Z,22.85
2023-03-20T09:12:55.157Z,27.08
2023-03-20T09:15:22.380Z,23.48
2023-03-20T09:17:50.181Z,25.05
2023-03-20T09:20:16.977Z,28.40
2023-03-20T09:22:46.128Z,27.25
2023-03-20T09:25:13.359Z,26.33
2023-03-20T09:27:41.224Z,28.60
2023-03-20T09:30:13.139Z,26.02
2023-03-20T09:32:47.540Z,32.08
2023-03-20T09:38:01.719Z,34.63
2023-03-20T09:40:49.763Z,29.98
2023-03-20T09:43:52.074Z,35.83
2023-03-20T09:46:38.545Z,35.20
2023-03-20T09:49:30.595Z,35.38
2023-03-20T09:52:05.279Z,27.90
2023-03-20T09:54:53.544Z,28.17
2023-03-20T09:57:58.837Z,27.15
2023-03-20T10:00:28.894Z,25.67
2023-03-20T10:03:25.144Z,23.25
2023-03-20T10:06:01.727Z,26.80
2023-03-20T10:08:34.084Z,22.45
2023-03-20T10:11:27.715Z,23.42
2023-03-20T10:14:04.109Z,23.30
2023-03-20T10:16:53.637Z,21.92
2023-03-20T10:19:34.530Z,19.88
2023-03-20T10:22:11.591Z,23.63
2023-03-20T10:24:55.598Z,21.52
2023-03-20T10:27:28.092Z,22.45
2023-03-20T10:30:39.376Z,22.35
2023-03-20T10:33:51.209Z,16.60
2023-03-20T10:36:22.060Z,23.92
2023-03-20T10:39:16.707Z,24.42
2023-03-20T10:41:57.089Z,22.83
2023-03-20T10:44:31.977Z,21.73
2023-03-20T10:47:03.032Z,21.85
2023-03-20T10:49:30.962Z,18.95
2023-03-20T10:52:05.160Z,14.80
2023-03-20T10:54:42.455Z,14.63
2023-03-20T10:57:24.447Z,15.68
2023-03-20T10:59:52.582Z,14.05
2023-03-20T11:02:23.698Z,16.92
2023-03-20T11:04:51.137Z,15.98
2023-03-20T11:07:28.729Z,16.58
2023-03-20T11:10:07.959Z,15.48
2023-03-20T11:15:14.592Z,19.65
2023-03-20T11:17:42.186Z,19.48
2023-03-20T11:20:13.965Z,13.43
2023-03-20T11:22:42.161Z,14.77
2023-03-20T11:25:23.829Z,19.48
2023-03-20T11:27:51.437Z,17.58
2023-03-20T11:30:18.403Z,18.25
2023-03-20T11:32:51.443Z,17.38
2023-03-20T11:35:17.980Z,15.27
2023-03-20T11:37:48.021Z,16.73
2023-03-20T11:40:34.245Z,19.75
2023-03-20T11:43:01.351Z,19.83
2023-03-20T11:45:35.724Z,19.08
2023-03-20T11:48:04.826Z,17.63
2023-03-20T11:50:43.086Z,17.30
2023-03-20T11:53:31.757Z,16.70
2023-03-20T11:56:22.934Z,15.77
2023-03-20T11:59:07.036Z,18.55
2023-03-20T12:01:49.216Z,17.55
2023-03-20T12:04:26.380Z,16.50
2023-03-20T12:07:05.143Z,18.85
2023-03-20T12:09:38.386Z,16.50
2023-03-20T12:12:15.475Z,19.83
2023-03-20T12:14:56.427Z,16.13
2023-03-20T12:17:51.244Z,13.90
2023-03-20T12:20:36.739Z,12.25
2023-03-20T12:23:09.683Z,15.43
2023-03-20T12:25:45.360Z,12.10
2023-03-20T12:28:18.729Z,12.50
2023-03-20T12:30:51.465Z,12.65
2023-03-20T12:33:34.450Z,12.63
2023-03-20T12:36:02.662Z,10.30
2023-03-20T12:38:34.494Z,10.55
2023-03-20T12:41:13.111Z,8.85
2023-03-20T12:44:10.292Z,11.27
2023-03-20T12:47:26.390Z,10.48
2023-03-20T12:50:17.424Z,13.63
2023-03-20T12:53:09.046Z,14.98
2023-03-20T12:56:03.923Z,12.35
2023-03-20T12:58:40.119Z,12.73
2023-03-20T13:01:19.163Z,14.60
2023-03-20T13:04:04.706Z,15.35
2023-03-20T13:06:54.553Z,11.13
2023-03-20T13:09:37.581Z,12.52
2023-03-20T13:12:29.506Z,10.75
2023-03-20T13:15:29.788Z,11.90
2023-03-20T13:18:16.215Z,11.02
2023-03-20T13:20:52.081Z,10.55
2023-03-20T13:23:40.053Z,13.05
2023-03-20T13:26:36.428Z,9.15
2023-03-20T13:29:12.886Z,10.80
2023-03-20T13:31:47.578Z,12.60
2023-03-20T13:34:33.565Z,9.55
2023-03-20T13:37:22.458Z,13.82
2023-03-20T13:40:16.817Z,11.52
2023-03-20T13:43:11.542Z,13.60
2023-03-20T13:45:41.718Z,13.93
2023-03-20T13:48:27.232Z,16.77
2023-03-20T13:51:02.223Z,10.88
2023-03-20T13:53:32.732Z,15.98
2023-03-20T13:56:15.549Z,11.23
2023-03-20T13:59:24.081Z,13.77
2023-03-20T14:02:00.850Z,11.27
2023-03-20T14:04:30.863Z,8.88
2023-03-20T14:09:33.028Z,9.25
2023-03-20T14:12:07.434Z,10.82
2023-03-20T14:14:50.492Z,12.07
2023-03-20T14:17:20.794Z,8.13
2023-03-20T14:19:49.361Z,11.93
2023-03-20T14:22:22.484Z,7.22
2023-03-20T14:24:59.728Z,13.23
2023-03-20T14:27:43.890Z,8.60
2023-03-20T14:30:30.129Z,8.43
2023-03-20T14:33:05.817Z,9.82
2023-03-20T14:35:38.545Z,10.48
2023-03-20T14:38:20.159Z,8.13
2023-03-20T14:41:06.744Z,6.65
2023-03-20T14:43:42.936Z,9.70
2023-03-20T14:46:26.369Z,12.45
2023-03-20T14:48:55.301Z,13.80
2023-03-20T14:51:31.109Z,8.93
2023-03-20T14:54:25.470Z,10.50
2023-03-20T14:56:52.874Z,12.25
2023-03-20T14:59:22.951Z,12.27
2023-03-20T15:01:59.740Z,10.15
2023-03-20T15:04:35.089Z,13.45
2023-03-20T15:07:15.717Z,13.43
2023-03-20T15:09:47.897Z,9.60
2023-03-20T15:12:19.377Z,8.80
2023-03-20T15:15:00.991Z,11.60
2023-03-20T15:17:44.327Z,11.15
2023-03-20T15:20:29.133Z,12.05
2023-03-20T15:23:00.541Z,11.27
2023-03-20T15:25:44.016Z,12.13
2023-03-20T15:28:20.490Z,18.15
2023-03-20T15:30:50.644Z,15.07
2023-03-20T15:33:27.204Z,13.55
2023-03-20T15:35:55.302Z,10.60
2023-03-20T15:38:22.454Z,14.43
2023-03-20T15:40:51.419Z,15.20
2023-03-20T15:43:24.905Z,13.77
2023-03-20T15:46:14.191Z,12.85
2023-03-20T15:48:47.407Z,13.55
2023-03-20T15:51:14.848Z,12.57
2023-03-20T15:53:46.717Z,14.93
2023-03-20T15:56:18.985Z,8.40
2023-03-20T15:58:49.480Z,8.55
2023-03-20T16:01:19.953Z,8.55
2023-03-20T16:03:48.070Z,12.25
2023-03-20T16:06:19.944Z,22.27
2023-03-20T16:09:00.232Z,13.82
2023-03-20T16:11:39.876Z,17.75
2023-03-20T16:14:10.881Z,8.55
2023-03-20T16:16:38.436Z,13.27
2023-03-20T16:19:07.064Z,14.07
2023-03-20T16:21:40.799Z,20.17
2023-03-20T16:24:15.837Z,10.25
2023-03-20T16:26:48.273Z,10.90
2023-03-20T16:29:16.103Z,9.10
2023-03-20T16:31:55.766Z,7.28
2023-03-20T16:34:36.789Z,9.50
2023-03-20T16:37:08.893Z,10.10
2023-03-20T16:39:36.197Z,13.07
2023-03-20T16:42:22.587Z,13.18
2023-03-20T16:44:56.025Z,16.15
2023-03-20T16:47:41.411Z,11.38
2023-03-20T16:50:22.870Z,7.68
2023-03-20T16:52:58.491Z,9.82
2023-03-20T16:55:31.868Z,9.90
2023-03-20T16:58:03.456Z,11.23
2023-03-20T17:00:44.175Z,11.80
2023-03-20T17:03:27.192Z,13.93
2023-03-20T17:06:08.721Z,10.18
2023-03-20T17:08:42.628Z,14.73
2023-03-20T17:11:13.760Z,8.73
2023-03-20T17:13:41.384Z,12.48
2023-03-20T17:16:19.565Z,13.93
2023-03-20T17:18:48.465Z,13.40
2023-03-20T17:21:15.110Z,13.65
2023-03-20T17:23:42.085Z,13.20
2023-03-20T17:26:12.808Z,14.18
2023-03-20T17:28:40.303Z,13.65
2023-03-20T17:31:07.210Z,12.25
2023-03-20T17:33:34.741Z,20.95
2023-03-20T17:36:01.577Z,14.25
2023-03-20T17:38:28.860Z,21.75
2023-03-20T17:40:55.419Z,15.73
2023-03-20T17:43:22.715Z,19.55
2023-03-20T17:45:49.788Z,17.20
2023-03-20T17:48:21.478Z,17.13
2023-03-20T17:50:50.928Z,14.30
2023-03-20T17:53:20.821Z,14.55
2023-03-20T17:55:47.711Z,21.88
2023-03-20T17:58:16.534Z,16.80
2023-03-20T18:00:44.568Z,14.38
2023-03-20T18:03:11.762Z,18.45
2023-03-20T18:05:39.673Z,16.67
2023-03-20T18:08:12.937Z,15.45
2023-03-20T18:10:46.604Z,14.20
2023-03-20T18:13:13.339Z,15.88
2023-03-20T18:15:41.066Z,19.45
2023-03-20T18:18:08.681Z,16.15
2023-03-20T18:20:39.699Z,17.55
2023-03-20T18:23:07.027Z,16.23
2023-03-20T18:25:34.925Z,17.25
2023-03-20T18:28:05.600Z,17.17
2023-03-20T18:33:57.424Z,39.72
2023-03-20T18:36:25.017Z,51.70
2023-03-20T18:38:52.843Z,54.25
2023-03-20T18:41:20.772Z,23.83
2023-03-20T18:43:48.665Z,22.33
2023-03-20T18:46:24.060Z,46.47
2023-03-20T18:48:52.832Z,52.60
2023-03-20T18:51:20.824Z,52.55
2023-03-20T18:53:48.432Z,25.35
2023-03-20T18:56:20.311Z,18.38
2023-03-20T18:58:48.353Z,35.58
2023-03-20T19:01:16.108Z,35.33
2023-03-20T19:03:44.588Z,21.60
2023-03-20T19:06:17.245Z,24.25
2023-03-20T19:08:45.939Z,28.30
2023-03-20T19:11:17.860Z,18.77
2023-03-20T19:13:50.265Z,30.80
2023-03-20T19:16:24.996Z,36.55
2023-03-20T19:18:53.897Z,56.90
2023-03-20T19:21:25.994Z,30.10
2023-03-20T19:23:58.449Z,24.17
2023-03-20T19:26:27.299Z,20.73
2023-03-20T19:28:56.607Z,17.45
2023-03-20T19:31:24.650Z,14.30
2023-03-20T19:33:52.624Z,16.45
2023-03-20T19:36:24.123Z,16.88
2023-03-20T19:38:52.264Z,17.05
2023-03-20T19:41:20.097Z,16.63
2023-03-20T19:43:53.192Z,15.77
2023-03-20T19:46:39.797Z,20.25
2023-03-20T19:49:30.185Z,18.13
2023-03-20T19:51:57.776Z,15.30
2023-03-20T19:54:25.090Z,23.10
2023-03-20T19:56:51.811Z,17.25
2023-03-20T19:59:21.092Z,17.77
2023-03-20T20:01:51.210Z,18.85
2023-03-20T20:04:18.534Z,16.27
2023-03-20T20:06:47.492Z,18.77
2023-03-20T20:09:15.499Z,15.27
2023-03-20T20:11:42.400Z,18.85
2023-03-20T20:14:11.965Z,21.55
2023-03-20T20:16:42.767Z,22.38
2023-03-20T20:24:24.364Z,20.60
2023-03-20T20:26:59.919Z,21.95
2023-03-20T20:29:41.815Z,19.00
2023-03-20T20:40:24.475Z,20.58
2023-03-20T20:42:54.583Z,23.70
2023-03-20T20:45:31.414Z,18.85
2023-03-20T20:48:02.482Z,21.63
2023-03-20T20:50:32.097Z,22.67
2023-03-20T20:52:59.205Z,21.23
2023-03-20T20:55:26.548Z,21.50
2023-03-20T20:57:55.750Z,21.58
2023-03-20T21:00:37.073Z,23.35
2023-03-20T21:03:12.624Z,22.52
2023-03-20T21:05:42.877Z,23.30
2023-03-20T21:08:11.113Z,18.17
2023-03-20T21:10:38.048Z,17.55
2023-03-20T21:13:04.641Z,21.05
2023-03-20T21:15:31.808Z,23.42
2023-03-20T21:18:01.344Z,21.13
2023-03-20T21:20:30.402Z,19.10
2023-03-20T21:22:57.181Z,20.20
2023-03-20T21:25:38.625Z,22.05
2023-03-20T21:28:07.184Z,20.75
